Lakeland, Minnesota
Current Conditions -  °F | °C
As of 2:50 AM on Sunday 23 Nov 2014 (Local Time) from K21D Reporting Station
Haze Haze  
Wind Chill: 40°   Ceiling: 400
Heat Index: 45°   Visibility: 1.2mi
Dew Point: 45°   Wind: 8mph
Humidity: 100%   Direction: 180°S
Pressure: 29.47"   Gusts: NA
Location:  44.96°N, 92.77°W
Report Text: K21D 230850Z AUTO 18007KT 1 1/4SM BR OVC004 07/07 A2947 RMK AO2
Loading
Personal Weather Stations






























Interactive Weather Map New forecast layout! Learn more

10-Day Weather Forecast

Advertisements
Track Severe Weather on mobile